createdAt,value
2022-07-28T00:01:04.957Z,19.40
2022-07-28T00:04:26.976Z,19.30
2022-07-28T00:07:50.152Z,19.30
2022-07-28T00:11:12.003Z,19.30
2022-07-28T00:14:33.813Z,19.20
2022-07-28T00:17:55.643Z,19.20
2022-07-28T00:21:17.554Z,19.20
2022-07-28T00:24:40.682Z,19.20
2022-07-28T00:28:02.496Z,19.10
2022-07-28T00:31:24.394Z,19.10
2022-07-28T00:34:46.335Z,19.00
2022-07-28T00:38:08.230Z,19.00
2022-07-28T00:41:34.666Z,18.90
2022-07-28T00:44:56.557Z,18.90
2022-07-28T00:48:18.377Z,18.70
2022-07-28T00:51:40.554Z,18.60
2022-07-28T00:55:04.595Z,18.50
2022-07-28T00:58:27.972Z,18.40
2022-07-28T01:01:53.217Z,18.40
2022-07-28T01:05:15.384Z,18.30
2022-07-28T01:08:47.767Z,18.30
2022-07-28T01:12:18.459Z,18.30
2022-07-28T01:15:48.474Z,18.30
2022-07-28T01:19:20.291Z,18.30
2022-07-28T01:23:01.790Z,18.30
2022-07-28T01:26:42.818Z,18.20
2022-07-28T01:30:21.302Z,18.20
2022-07-28T01:33:54.912Z,18.20
2022-07-28T01:37:19.882Z,18.10
2022-07-28T01:40:45.028Z,18.00
2022-07-28T01:44:12.077Z,17.90
2022-07-28T01:47:36.351Z,17.90
2022-07-28T01:50:58.433Z,17.80
2022-07-28T01:54:21.044Z,17.70
2022-07-28T01:57:43.937Z,17.70
2022-07-28T02:01:07.095Z,17.60
2022-07-28T02:04:33.234Z,17.60
2022-07-28T02:07:56.309Z,17.60
2022-07-28T02:11:18.366Z,17.50
2022-07-28T02:14:42.071Z,17.40
2022-07-28T02:18:05.714Z,17.40
2022-07-28T02:21:31.228Z,17.30
2022-07-28T02:24:53.940Z,17.30
2022-07-28T02:28:21.196Z,17.30
2022-07-28T02:31:49.192Z,17.20
2022-07-28T02:35:22.252Z,17.20
2022-07-28T02:38:49.213Z,17.10
2022-07-28T02:42:17.410Z,17.10
2022-07-28T02:45:44.489Z,17.00
2022-07-28T02:49:10.653Z,17.00
2022-07-28T02:52:33.779Z,17.00
2022-07-28T02:55:58.322Z,17.00
2022-07-28T02:59:21.295Z,17.10
2022-07-28T03:02:43.781Z,17.10
2022-07-28T03:06:05.683Z,17.10
2022-07-28T03:09:28.020Z,17.10
2022-07-28T03:12:51.736Z,17.10
2022-07-28T03:16:13.564Z,17.10
2022-07-28T03:19:35.513Z,17.10
2022-07-28T03:22:57.635Z,17.10
2022-07-28T03:26:25.513Z,17.10
2022-07-28T03:29:54.874Z,17.00
2022-07-28T03:33:18.265Z,17.00
2022-07-28T03:36:44.027Z,17.00
2022-07-28T03:40:09.973Z,17.00
2022-07-28T03:43:33.462Z,17.00
2022-07-28T03:46:56.644Z,17.00
2022-07-28T03:50:21.884Z,16.90
2022-07-28T03:53:44.344Z,16.90
2022-07-28T03:57:06.651Z,16.90
2022-07-28T04:00:28.619Z,16.80
2022-07-28T04:03:51.884Z,16.80
2022-07-28T04:07:13.691Z,16.80
2022-07-28T04:10:35.873Z,16.80
2022-07-28T04:13:57.744Z,16.80
2022-07-28T04:17:19.554Z,16.80
2022-07-28T04:20:42.744Z,16.80
2022-07-28T04:24:05.645Z,16.80
2022-07-28T04:27:27.506Z,16.90
2022-07-28T04:30:49.393Z,16.90
2022-07-28T04:34:11.653Z,16.90
2022-07-28T04:37:35.040Z,16.90
2022-07-28T04:40:57.031Z,17.00
2022-07-28T04:44:18.842Z,17.00
2022-07-28T04:47:40.731Z,17.10
2022-07-28T04:51:02.565Z,17.10
2022-07-28T04:54:26.877Z,17.30
2022-07-28T04:57:48.845Z,17.40
2022-07-28T05:01:10.685Z,17.60
2022-07-28T05:04:32.903Z,17.80
2022-07-28T05:07:56.658Z,17.90
2022-07-28T05:11:19.820Z,18.10
2022-07-28T05:14:41.603Z,18.20
2022-07-28T05:18:03.638Z,18.30
2022-07-28T05:21:25.433Z,18.60
2022-07-28T05:24:47.300Z,18.90
2022-07-28T05:28:10.573Z,19.50
2022-07-28T05:31:32.443Z,19.90
2022-07-28T05:34:54.780Z,20.60
2022-07-28T05:38:17.044Z,21.60
2022-07-28T05:41:38.897Z,22.50
2022-07-28T05:45:03.103Z,22.60
2022-07-28T05:48:37.424Z,23.10
2022-07-28T05:52:00.676Z,23.10
2022-07-28T05:55:22.488Z,22.30
2022-07-28T05:58:44.337Z,21.20
2022-07-28T06:02:10.357Z,20.80
2022-07-28T06:05:32.714Z,21.70
2022-07-28T06:08:54.504Z,23.60
2022-07-28T06:12:16.305Z,25.20
2022-07-28T06:15:38.204Z,26.30
2022-07-28T06:19:01.363Z,27.40
2022-07-28T06:22:26.540Z,28.50
2022-07-28T06:25:49.090Z,29.00
2022-07-28T06:29:10.921Z,29.20
2022-07-28T06:32:32.928Z,29.50
2022-07-28T06:35:57.011Z,30.50
2022-07-28T06:39:18.802Z,29.90
2022-07-28T06:42:41.580Z,29.80
2022-07-28T06:46:03.647Z,30.20
2022-07-28T06:49:25.451Z,29.90
2022-07-28T06:52:48.721Z,30.20
2022-07-28T06:56:13.778Z,29.60
2022-07-28T06:59:37.426Z,29.50
2022-07-28T07:03:00.924Z,29.20
2022-07-28T07:06:23.097Z,29.70
2022-07-28T07:09:46.249Z,30.00
2022-07-28T07:13:08.074Z,30.00
2022-07-28T07:16:30.001Z,30.00
2022-07-28T07:19:53.349Z,29.90
2022-07-28T07:23:15.764Z,30.50
2022-07-28T07:26:39.155Z,31.00
2022-07-28T07:30:02.288Z,31.40
2022-07-28T07:33:26.663Z,31.90
2022-07-28T07:36:48.632Z,32.10
2022-07-28T07:40:10.591Z,32.30
2022-07-28T07:43:33.828Z,32.10
2022-07-28T07:46:55.728Z,31.90
2022-07-28T07:50:17.547Z,31.30
2022-07-28T07:53:39.377Z,31.40
2022-07-28T07:57:01.270Z,31.90
2022-07-28T08:00:29.246Z,31.70
2022-07-28T08:03:53.729Z,31.40
2022-07-28T08:07:15.836Z,31.40
2022-07-28T08:10:39.266Z,31.70
2022-07-28T08:14:02.141Z,32.00
2022-07-28T08:17:26.404Z,31.80
2022-07-28T08:20:48.406Z,31.80
2022-07-28T08:24:10.926Z,32.00
2022-07-28T08:27:39.707Z,32.80
2022-07-28T08:31:01.736Z,33.00
2022-07-28T08:34:31.260Z,33.10
2022-07-28T08:37:55.330Z,33.20
2022-07-28T08:41:22.608Z,33.60
2022-07-28T08:44:51.293Z,33.50
2022-07-28T08:48:14.052Z,33.20
2022-07-28T08:51:38.099Z,33.20
2022-07-28T08:55:02.871Z,32.80
2022-07-28T08:58:24.825Z,32.80
2022-07-28T09:01:48.075Z,32.60
2022-07-28T09:05:10.389Z,32.10
2022-07-28T09:08:33.786Z,31.00
2022-07-28T09:11:55.602Z,31.00
2022-07-28T09:15:17.434Z,31.60
2022-07-28T09:18:39.231Z,31.80
2022-07-28T09:22:01.053Z,31.40
2022-07-28T09:25:25.196Z,30.40
2022-07-28T09:28:49.334Z,30.60
2022-07-28T09:32:17.134Z,31.10
2022-07-28T09:35:43.502Z,32.10
2022-07-28T09:39:06.928Z,32.90
2022-07-28T09:42:46.783Z,32.90
2022-07-28T09:46:10.439Z,32.60
2022-07-28T09:49:43.069Z,32.50
2022-07-28T09:53:27.323Z,32.40
2022-07-28T09:56:50.125Z,32.40
2022-07-28T10:00:25.631Z,32.30
2022-07-28T10:03:51.980Z,31.60
2022-07-28T10:07:14.486Z,31.30
2022-07-28T10:10:36.565Z,32.30
2022-07-28T10:14:03.433Z,32.50
2022-07-28T10:17:28.818Z,32.00
2022-07-28T10:20:50.761Z,32.10
2022-07-28T10:24:20.477Z,32.00
2022-07-28T10:27:45.929Z,31.40
2022-07-28T10:31:13.419Z,30.20
2022-07-28T10:34:43.244Z,29.20
2022-07-28T10:38:12.959Z,29.20
2022-07-28T10:41:45.507Z,29.60
2022-07-28T10:45:09.773Z,29.70
2022-07-28T10:48:32.140Z,28.90
2022-07-28T10:52:08.631Z,28.60
2022-07-28T10:55:48.769Z,28.80
2022-07-28T10:59:22.277Z,29.20
2022-07-28T11:02:52.631Z,29.10
2022-07-28T11:06:29.112Z,28.90
2022-07-28T11:09:52.332Z,29.00
2022-07-28T11:13:29.017Z,29.00
2022-07-28T11:17:11.499Z,28.80
2022-07-28T11:21:04.892Z,29.00
2022-07-28T11:25:18.444Z,29.00
2022-07-28T11:29:14.714Z,28.80
2022-07-28T11:32:56.414Z,28.30
2022-07-28T11:36:18.211Z,28.30
2022-07-28T11:39:43.880Z,28.50
2022-07-28T11:43:37.287Z,28.60
2022-07-28T11:47:16.835Z,28.60
2022-07-28T11:50:38.738Z,28.80
2022-07-28T11:54:02.801Z,28.70
2022-07-28T11:57:26.696Z,28.70
2022-07-28T12:00:48.522Z,28.80
2022-07-28T12:04:13.442Z,28.90
2022-07-28T12:07:38.309Z,29.00
2022-07-28T12:11:00.132Z,28.90
2022-07-28T12:14:22.516Z,29.00
2022-07-28T12:17:44.491Z,28.80
2022-07-28T12:21:07.675Z,28.70
2022-07-28T12:24:32.246Z,28.80
2022-07-28T12:28:17.171Z,29.00
2022-07-28T12:31:52.543Z,29.00
2022-07-28T12:35:16.283Z,29.10
2022-07-28T12:38:39.552Z,29.00
2022-07-28T12:42:03.401Z,28.80
2022-07-28T12:45:25.514Z,28.80
2022-07-28T12:48:48.509Z,28.90
2022-07-28T12:52:18.829Z,29.00
2022-07-28T12:55:45.443Z,29.00
2022-07-28T12:59:08.969Z,29.10
2022-07-28T13:02:36.141Z,29.00
2022-07-28T13:06:08.735Z,28.90
2022-07-28T13:09:33.029Z,29.00
2022-07-28T13:13:04.150Z,29.10
2022-07-28T13:16:28.043Z,29.20
2022-07-28T13:19:50.405Z,29.10
2022-07-28T13:23:12.236Z,29.20
2022-07-28T13:26:34.092Z,29.00
2022-07-28T13:29:57.294Z,29.10
2022-07-28T13:33:19.273Z,29.10
2022-07-28T13:36:43.169Z,29.00
2022-07-28T13:40:06.350Z,28.80
2022-07-28T13:43:35.989Z,29.00
2022-07-28T13:47:01.577Z,28.80
2022-07-28T13:50:26.101Z,28.90
2022-07-28T13:53:51.252Z,28.90
2022-07-28T13:57:15.686Z,28.90
2022-07-28T14:00:38.852Z,29.00
2022-07-28T14:04:02.395Z,28.70
2022-07-28T14:07:24.233Z,28.60
2022-07-28T14:10:48.187Z,28.70
2022-07-28T14:14:11.564Z,28.80
2022-07-28T14:17:44.820Z,28.80
2022-07-28T14:21:08.652Z,29.00
2022-07-28T14:24:30.677Z,28.90
2022-07-28T14:27:53.540Z,28.80
2022-07-28T14:31:15.526Z,28.80
2022-07-28T14:34:37.417Z,28.90
2022-07-28T14:41:45.218Z,28.80
2022-07-28T14:45:08.263Z,28.60
2022-07-28T14:48:30.075Z,28.60
2022-07-28T14:51:51.927Z,28.80
2022-07-28T14:55:15.109Z,28.90
2022-07-28T14:58:37.162Z,28.90
2022-07-28T15:02:00.144Z,28.80
2022-07-28T15:05:23.216Z,28.80
2022-07-28T15:08:45.186Z,28.80
2022-07-28T15:12:08.974Z,28.80
2022-07-28T15:15:30.846Z,28.70
2022-07-28T15:18:53.131Z,28.80
2022-07-28T15:22:15.006Z,28.80
2022-07-28T15:25:36.839Z,28.70
2022-07-28T15:29:00.233Z,28.60
2022-07-28T15:32:28.317Z,28.60
2022-07-28T15:35:58.706Z,28.50
2022-07-28T15:39:21.406Z,28.50
2022-07-28T15:42:43.200Z,28.60
2022-07-28T15:46:09.650Z,28.70
2022-07-28T15:49:31.552Z,28.70
2022-07-28T15:52:53.451Z,28.60
2022-07-28T15:56:15.270Z,28.50
2022-07-28T15:59:49.922Z,28.30
2022-07-28T16:03:14.213Z,28.30
2022-07-28T16:06:36.342Z,28.40
2022-07-28T16:09:58.603Z,28.50
2022-07-28T16:13:32.184Z,28.50
2022-07-28T16:16:59.145Z,28.60
2022-07-28T16:20:22.796Z,28.60
2022-07-28T16:23:44.626Z,28.60
2022-07-28T16:27:06.487Z,28.70
2022-07-28T16:30:28.300Z,28.70
2022-07-28T16:33:50.151Z,28.80
2022-07-28T16:37:18.963Z,29.00
2022-07-28T16:40:41.343Z,29.00
2022-07-28T16:44:03.615Z,29.00
2022-07-28T16:47:25.485Z,28.80
2022-07-28T16:50:47.473Z,28.60
2022-07-28T16:54:10.650Z,28.50
2022-07-28T16:57:32.496Z,28.50
2022-07-28T17:00:54.395Z,28.40
2022-07-28T17:04:18.805Z,28.30
2022-07-28T17:07:45.243Z,28.10
2022-07-28T17:11:08.971Z,28.00
2022-07-28T17:14:33.429Z,28.00
2022-07-28T17:17:55.509Z,27.90
2022-07-28T17:21:17.403Z,27.90
2022-07-28T17:24:39.312Z,28.00
2022-07-28T17:28:03.178Z,28.00
2022-07-28T17:31:26.092Z,28.00
2022-07-28T17:34:49.675Z,28.00
2022-07-28T17:38:11.837Z,27.90
2022-07-28T17:41:34.134Z,27.70
2022-07-28T17:44:57.361Z,27.60
2022-07-28T17:48:19.297Z,27.40
2022-07-28T17:51:41.274Z,27.20
2022-07-28T17:55:03.574Z,27.20
2022-07-28T17:58:28.047Z,27.10
2022-07-28T18:01:51.631Z,27.00
2022-07-28T18:05:13.531Z,26.80
2022-07-28T18:08:35.403Z,26.60
2022-07-28T18:11:58.898Z,26.60
2022-07-28T18:15:20.931Z,26.60
2022-07-28T18:18:44.114Z,26.50
2022-07-28T18:22:07.367Z,26.50
2022-07-28T18:25:29.238Z,26.60
2022-07-28T18:28:51.111Z,26.60
2022-07-28T18:32:12.972Z,26.50
2022-07-28T18:35:37.118Z,26.50
2022-07-28T18:38:59.818Z,26.50
2022-07-28T18:42:30.461Z,26.60
2022-07-28T18:45:54.397Z,26.50
2022-07-28T18:49:16.407Z,26.40
2022-07-28T18:52:40.288Z,26.40
2022-07-28T18:56:02.146Z,26.30
2022-07-28T18:59:24.126Z,26.10
2022-07-28T19:02:47.345Z,26.00
2022-07-28T19:06:10.571Z,25.90
2022-07-28T19:09:36.841Z,25.90
2022-07-28T19:12:59.121Z,25.80
2022-07-28T19:16:25.034Z,25.70
2022-07-28T19:19:47.758Z,25.70
2022-07-28T19:23:09.576Z,25.70
2022-07-28T19:26:32.921Z,25.60
2022-07-28T19:29:55.980Z,25.60
2022-07-28T19:33:19.278Z,25.60
2022-07-28T19:36:41.387Z,25.70
2022-07-28T19:40:03.636Z,25.70
2022-07-28T19:43:26.870Z,25.70
2022-07-28T19:46:48.732Z,25.60
2022-07-28T19:50:10.795Z,25.40
2022-07-28T19:53:34.499Z,25.10
2022-07-28T19:56:58.452Z,24.80
2022-07-28T20:00:23.045Z,24.70
2022-07-28T20:04:00.725Z,24.70
2022-07-28T20:07:26.151Z,24.50
2022-07-28T20:10:48.243Z,24.00
2022-07-28T20:14:11.130Z,23.60
2022-07-28T20:17:39.381Z,23.30
2022-07-28T20:21:01.769Z,23.10
2022-07-28T20:24:24.241Z,22.80
2022-07-28T20:27:46.212Z,22.40
2022-07-28T20:31:08.976Z,22.00
2022-07-28T20:34:34.634Z,21.60
2022-07-28T20:38:00.526Z,21.30
2022-07-28T20:41:22.383Z,21.10
2022-07-28T20:44:44.323Z,20.90
2022-07-28T20:48:06.356Z,20.70
2022-07-28T20:51:29.511Z,20.50
2022-07-28T20:54:54.554Z,20.30
2022-07-28T20:58:17.169Z,19.70
2022-07-28T21:01:43.532Z,19.00
2022-07-28T21:05:07.276Z,18.50
2022-07-28T21:08:30.564Z,18.20
2022-07-28T21:11:53.029Z,18.10
2022-07-28T21:15:16.257Z,18.10
2022-07-28T21:18:38.292Z,18.00
2022-07-28T21:22:00.284Z,18.10
2022-07-28T21:25:23.440Z,18.20
2022-07-28T21:28:45.478Z,18.30
2022-07-28T21:32:07.537Z,18.30
2022-07-28T21:35:29.469Z,18.30
2022-07-28T21:38:51.477Z,18.40
2022-07-28T21:42:14.759Z,18.60
2022-07-28T21:45:36.678Z,18.70
2022-07-28T21:48:59.638Z,18.80
2022-07-28T21:52:21.518Z,18.90
2022-07-28T21:55:46.896Z,19.00
2022-07-28T21:59:10.169Z,19.10
2022-07-28T22:02:31.965Z,19.20
2022-07-28T22:05:54.692Z,19.30
2022-07-28T22:09:16.586Z,19.30
2022-07-28T22:12:38.377Z,19.30
2022-07-28T22:16:01.617Z,19.40
2022-07-28T22:19:23.505Z,19.30
2022-07-28T22:22:45.358Z,19.20
2022-07-28T22:26:07.397Z,19.20
2022-07-28T22:29:31.140Z,19.10
2022-07-28T22:32:54.451Z,19.10
2022-07-28T22:36:16.260Z,19.00
2022-07-28T22:39:38.468Z,18.90
2022-07-28T22:43:00.275Z,18.90
2022-07-28T22:46:22.114Z,19.00
2022-07-28T22:49:45.306Z,19.00
2022-07-28T22:53:07.220Z,19.00
2022-07-28T22:56:34.876Z,19.00
2022-07-28T22:59:59.360Z,19.10
2022-07-28T23:03:21.236Z,19.10
2022-07-28T23:06:44.533Z,19.10
2022-07-28T23:10:07.599Z,19.20
2022-07-28T23:13:29.386Z,19.20
2022-07-28T23:16:51.205Z,19.20
2022-07-28T23:20:13.318Z,19.20
2022-07-28T23:23:37.064Z,19.20
2022-07-28T23:26:58.885Z,19.20
2022-07-28T23:30:20.697Z,19.20
2022-07-28T23:33:55.798Z,19.30
2022-07-28T23:37:19.193Z,19.30
2022-07-28T23:40:42.334Z,19.30
2022-07-28T23:44:04.431Z,19.20
2022-07-28T23:47:26.307Z,19.30
2022-07-28T23:50:48.099Z,19.30
2022-07-28T23:54:09.957Z,19.30
2022-07-28T23:57:33.502Z,19.40
